Aérodrome :
LOGIN :

S'inscrire | Disclaimer

   EN    FR    IT 

 










Légende :    VFR   VFR Marginal   IFR   IFR Intensif   IFR Très Intensif
Visi : 
Plafond : 
>= 8 km
>= 3000ft
5 à 8 km
1000 à 3000 ft
1500m à 5 km
500 à 1000 ft
800 à 1500m
200 à 500 ft
< 800m
< 200 ft
Symboles :   Orages  Brouillard  Fortes neiges  Fortes précipitations  Vent > 20 kt
SIGMETs :   Divers  Orages  Givrage  Turbulence  Onde Orograph.  Cendres Volcan.






- Altitude de l'aérodrome : 49 ft
- Code IATA : GLZ


EHGR - Gilze-Rijen Airbase

DERNIER METAR :
  • 252225Z AUTO 20006KT 170V240 9999 FEW055 BKN081 OVC087 09/07 Q1018 BLU

METARs EXPIRÉS :
  • 252200Z AUTO 20006KT 170V240 9999 FEW047 BKN052 BKN084 09/07 Q1018 BLU
  • 252155Z AUTO 20006KT 180V240 9999 SCT043 BKN049 OVC053 09/07 Q1018 BLU NOSIG
  • 252125Z AUTO 20006KT 170V240 9999 BKN048 OVC083 09/07 Q1018 BLU NOSIG
  • 252055Z AUTO 20006KT 170V260 9999 OVC046 08/06 Q1018 BLU NOSIG
  • 252036Z AUTO 20007KT 160V240 9999 FEW021 OVC044 07/06 Q1018 BLU NOSIG
  • 252025Z AUTO 21006KT 190V250 9999 BKN023 07/06 Q1018 WHT NOSIG
  • 251955Z AUTO 22004KT 9999 BKN029 08/06 Q1017 BLU NOSIG

TAF TAF EHGR
Valide du 25 à 18h jusqu'au 26 à 06h UTC


251716Z 2518/2606 19005KT 9999 SCT025 BKN250
PROB30 2523/2606 4000 BR
BECMG 2603/2606 BKN014



MET'MAP, la Météo Aéronautique d'un coup d'oeil ! - Copyright ORBIFLY Décembre 2007 - Disclaimer

ORBIFLY MET'MAP TEAM :

Programmation & Développement : Alexandra Zaïnal
Sur une idée originale de : Baudouin d'Aumeries
Assistance à la programmation : Marc-Olivier Méhu
Soutien technique & logistique : Manuel Goepfert

Contact : metmap@orbifly.com




SOURCES & CREDITS :

   NOAA